Observation data for McLean on 08/14/2019      Previous  Date  Next       Current Mesonet Observations  Soil Data  Daily Summary Page  Observations in Plain Language
KMCS 140500Z 05006KT 23/18 A3017 RMK A01 T02340182  RH  077%=      5-min Rain = 0
KMCS 140505Z 05007KT 23/18 A3017 RMK A01 T02320183  RH  078%=      5-min Rain = 0
KMCS 140510Z 05007KT 23/18 A3017 RMK A01 T02310183  RH  078%=      5-min Rain = 0
KMCS 140515Z 04008KT 23/18 A3018 RMK A01 T02320183  RH  078%=      5-min Rain = 0
KMCS 140520Z 02019G30KT 23/18 A302 RMK A01 T02320180  RH  077%=      5-min Rain = 0
KMCS 140525Z 03017G24KT 22/17 A302 RMK A01 T02210165  RH  074%=      5-min Rain = 0
KMCS 140530Z 03017G22KT 21/16 A302 RMK A01 T02140158  RH  074%=      5-min Rain = 0
KMCS 140535Z 04019G26KT 21/15 A302 RMK A01 T02120150  RH  071%=      5-min Rain = 0
KMCS 140540Z 04015G24KT 21/15 A3019 RMK A01 T02090145  RH  070%=      5-min Rain = 0
KMCS 140545Z 04016G22KT 21/14 A3019 RMK A01 T02060141  RH  069%=      5-min Rain = 0
KMCS 140550Z 04015G22KT 21/14 A3019 RMK A01 T02050139  RH  069%=      5-min Rain = 0
KMCS 140555Z 04015G23KT 20/14 A3019 RMK A01 T02030136  RH  068%=      5-min Rain = 0
KMCS 140600Z 04014G19KT 20/14 A3018 RMK A01 T02000135  RH  069%=      5-min Rain = 0
KMCS 140605Z 04012G17KT 20/14 A3018 RMK A01 T01990136  RH  070%=      5-min Rain = 0
KMCS 140610Z 04013G18KT 20/14 A3018 RMK A01 T01980135  RH  070%=      5-min Rain = 0
KMCS 140615Z 04011G16KT 20/14 A3018 RMK A01 T01960135  RH  071%=      5-min Rain = 0
KMCS 140620Z 04012G18KT 20/14 A3018 RMK A01 T01960135  RH  071%=      5-min Rain = 0
KMCS 140625Z 03012KT 20/13 A3018 RMK A01 T01960134  RH  070%=      5-min Rain = 0
KMCS 140630Z 03012G18KT 20/13 A3018 RMK A01 T01960133  RH  070%=      5-min Rain = 0
KMCS 140635Z 03012G17KT 20/13 A3017 RMK A01 T01960132  RH  070%=      5-min Rain = 0
KMCS 140640Z 03010G16KT 19/13 A3017 RMK A01 T01940133  RH  070%=      5-min Rain = 0
KMCS 140645Z 03009G14KT 19/13 A3017 RMK A01 T01930133  RH  071%=      5-min Rain = 0
KMCS 140650Z 03010KT 19/13 A3017 RMK A01 T01930132  RH  071%=      5-min Rain = 0
KMCS 140655Z 03009G15KT 19/13 A3017 RMK A01 T01930132  RH  071%=      5-min Rain = 0
KMCS 140700Z 03010KT 19/13 A3016 RMK A01 T01930133  RH  071%=      5-min Rain = 0
KMCS 140705Z 03009G14KT 19/13 A3016 RMK A01 T01940133  RH  071%=      5-min Rain = 0
KMCS 140710Z 03010KT 19/13 A3017 RMK A01 T01940133  RH  071%=      5-min Rain = 0
KMCS 140715Z 03009G14KT 19/13 A3016 RMK A01 T01930134  RH  071%=      5-min Rain = 0
KMCS 140720Z 03009G14KT 19/13 A3016 RMK A01 T01930134  RH  072%=      5-min Rain = 0
KMCS 140725Z 03009G15KT 19/14 A3016 RMK A01 T01920135  RH  072%=      5-min Rain = 0
KMCS 140730Z 02010G15KT 19/14 A3016 RMK A01 T01930135  RH  072%=      5-min Rain = 0
KMCS 140735Z 03009KT 19/14 A3016 RMK A01 T01930135  RH  072%=      5-min Rain = 0
KMCS 140740Z 02009G15KT 19/14 A3016 RMK A01 T01910136  RH  073%=      5-min Rain = 0
KMCS 140745Z 02010KT 19/14 A3016 RMK A01 T01920136  RH  073%=      5-min Rain = 0
KMCS 140750Z 02009G14KT 19/14 A3017 RMK A01 T01920137  RH  074%=      5-min Rain = 0
KMCS 140755Z 02009G14KT 19/14 A3017 RMK A01 T01900138  RH  075%=      5-min Rain = 0
KMCS 140800Z 02010KT 19/14 A3017 RMK A01 T01900138  RH  075%=      5-min Rain = 0
KMCS 140805Z 02010G15KT 19/14 A3017 RMK A01 T01890140  RH  076%=      5-min Rain = 0
KMCS 140810Z 02009G14KT 19/14 A3017 RMK A01 T01870140  RH  077%=      5-min Rain = 0
KMCS 140815Z 02009KT 19/14 A3016 RMK A01 T01860141  RH  078%=      5-min Rain = 0
KMCS 140820Z 03008KT 19/14 A3016 RMK A01 T01850142  RH  079%=      5-min Rain = 0
KMCS 140825Z 02008KT 18/14 A3016 RMK A01 T01830143  RH  081%=      5-min Rain = 0
KMCS 140830Z 02009G14KT 18/14 A3016 RMK A01 T01820143  RH  081%=      5-min Rain = 0
KMCS 140835Z 02009G14KT 18/14 A3016 RMK A01 T01810144  RH  082%=      5-min Rain = 0
KMCS 140840Z 03008G13KT 18/14 A3015 RMK A01 T01800144  RH  083%=      5-min Rain = 0
KMCS 140845Z 03007KT 18/14 A3015 RMK A01 T01790144  RH  084%=      5-min Rain = 0
KMCS 140850Z 02007KT 18/15 A3015 RMK A01 T01780145  RH  085%=      5-min Rain = 0
KMCS 140855Z 03007KT 18/15 A3015 RMK A01 T01770146  RH  085%=      5-min Rain = 0
KMCS 140900Z 02007KT 18/15 A3015 RMK A01 T01770146  RH  086%=      5-min Rain = 0
KMCS 140905Z 02007KT 18/15 A3015 RMK A01 T01760146  RH  086%=      5-min Rain = 0
KMCS 140910Z 02006KT 18/15 A3016 RMK A01 T01760146  RH  086%=      5-min Rain = 0
KMCS 140915Z 02006KT 18/15 A3016 RMK A01 T01750146  RH  087%=      5-min Rain = 0
KMCS 140920Z 01006KT 18/15 A3017 RMK A01 T01750146  RH  087%=      5-min Rain = 0
KMCS 140925Z 01006KT 17/15 A3017 RMK A01 T01740146  RH  087%=      5-min Rain = 0
KMCS 140930Z 00005KT 17/15 A3017 RMK A01 T01730147  RH  088%=      5-min Rain = 0
KMCS 140935Z 00003KT 17/15 A3017 RMK A01 T01710146  RH  089%=      5-min Rain = 0
KMCS 140940Z 01003KT 17/15 A3017 RMK A01 T01700147  RH  090%=      5-min Rain = 0
KMCS 140945Z 35003KT 17/15 A3017 RMK A01 T01700147  RH  090%=      5-min Rain = 0
KMCS 140950Z 33003KT 17/15 A3017 RMK A01 T01680146  RH  091%=      5-min Rain = 0
KMCS 140955Z 32005KT 17/15 A3017 RMK A01 T01660147  RH  093%=      5-min Rain = 0
KMCS 141000Z 33005KT 17/15 A3017 RMK A01 T01660148  RH  094%=      5-min Rain = 0
KMCS 141005Z 34006KT 17/15 A3017 RMK A01 T01660148  RH  093%=      5-min Rain = 0
KMCS 141010Z 33005KT 17/15 A3017 RMK A01 T01660148  RH  093%=      5-min Rain = 0
KMCS 141015Z 32005KT 17/15 A3017 RMK A01 T01650148  RH  094%=      5-min Rain = 0
KMCS 141020Z 31006KT 16/15 A3017 RMK A01 T01640148  RH  095%=      5-min Rain = 0
KMCS 141025Z 32006KT 16/15 A3017 RMK A01 T01640149  RH  095%=      5-min Rain = 0
KMCS 141030Z 31006KT 17/15 A3017 RMK A01 T01650149  RH  095%=      5-min Rain = 0
KMCS 141035Z 29004KT 17/15 A3017 RMK A01 T01660149  RH  094%=      5-min Rain = 0
KMCS 141040Z 26003KT 17/15 A3017 RMK A01 T01670150  RH  094%=      5-min Rain = 0
KMCS 141045Z 32014G20KT 17/15 A3019 RMK A01 T01670149  RH  094%=      5-min Rain = 0
KMCS 141050Z 32011G17KT 17/15 A3019 RMK A01 T01670149  RH  093%=      5-min Rain = 0
KMCS 141055Z 32010KT 17/15 A3019 RMK A01 T01680148  RH  092%=      5-min Rain = 0
KMCS 141100Z 33011KT 17/15 A3019 RMK A01 T01680147  RH  092%=      5-min Rain = 0
KMCS 141105Z 32010KT 17/15 A3019 RMK A01 T01680148  RH  092%=      5-min Rain = 0
KMCS 141110Z 30006KT 17/15 A3018 RMK A01 T01670148  RH  092%=      5-min Rain = 0
KMCS 141115Z 31010KT 17/15 A302 RMK A01 T01690149  RH  092%=      5-min Rain = 0
KMCS 141120Z 31008G13KT 17/15 A302 RMK A01 T01700149  RH  091%=      5-min Rain = 0
KMCS 141125Z 31007G12KT 17/15 A3019 RMK A01 T01710148  RH  090%=      5-min Rain = 0
KMCS 141130Z 32009KT 17/15 A3019 RMK A01 T01720147  RH  089%=      5-min Rain = 0
KMCS 141135Z 31007KT 17/15 A3019 RMK A01 T01710147  RH  090%=      5-min Rain = 0
KMCS 141140Z 31006G11KT 17/15 A3019 RMK A01 T01710146  RH  089%=      5-min Rain = 0
KMCS 141145Z 32009KT 17/15 A3019 RMK A01 T01710145  RH  088%=      5-min Rain = 0
KMCS 141150Z 32007KT 17/14 A302 RMK A01 T01720144  RH  088%=      5-min Rain = 0
KMCS 141155Z 31005KT 17/14 A3019 RMK A01 T01700144  RH  088%=      5-min Rain = 0
KMCS 141200Z 32006KT 17/15 A3019 RMK A01 T01690145  RH  090%=      5-min Rain = 0
KMCS 141205Z 31007KT 17/15 A3019 RMK A01 T01690145  RH  089%=      5-min Rain = 0
KMCS 141210Z 32007KT 17/15 A3019 RMK A01 T01690145  RH  090%=      5-min Rain = 0
KMCS 141215Z 31006KT 17/15 A3019 RMK A01 T01700145  RH  089%=      5-min Rain = 0
KMCS 141220Z 32006KT 17/15 A302 RMK A01 T01690146  RH  090%=      5-min Rain = 0
KMCS 141225Z 31006KT 17/15 A302 RMK A01 T01690146  RH  091%=      5-min Rain = 0
KMCS 141230Z 31006KT 17/15 A302 RMK A01 T01700146  RH  090%=      5-min Rain = 0
KMCS 141235Z 31006KT 17/15 A302 RMK A01 T01710147  RH  090%=      5-min Rain = 0
KMCS 141240Z 31006KT 17/15 A302 RMK A01 T01720148  RH  090%=      5-min Rain = 0
KMCS 141245Z 31005KT 17/15 A302 RMK A01 T01730149  RH  089%=      5-min Rain = 0
KMCS 141250Z 32005KT 18/15 A302 RMK A01 T01760149  RH  088%=      5-min Rain = 0
KMCS 141255Z 30006KT 18/15 A302 RMK A01 T01780149  RH  087%=      5-min Rain = 0
KMCS 141300Z 28006KT 18/15 A3019 RMK A01 T01790150  RH  087%=      5-min Rain = 0
KMCS 141305Z 27005KT 18/15 A3019 RMK A01 T01810149  RH  085%=      5-min Rain = 0
KMCS 141310Z 30007KT 18/15 A302 RMK A01 T01840150  RH  084%=      5-min Rain = 0
KMCS 141315Z 32008KT 19/15 A3021 RMK A01 T01870150  RH  082%=      5-min Rain = 0
KMCS 141320Z 32009KT 19/15 A3021 RMK A01 T01870150  RH  082%=      5-min Rain = 0
KMCS 141325Z 32006KT 19/15 A3022 RMK A01 T01870151  RH  084%=      5-min Rain = 0
KMCS 141330Z 31005KT 19/15 A3022 RMK A01 T01870152  RH  083%=      5-min Rain = 0
KMCS 141335Z 30004KT 19/15 A3022 RMK A01 T01880152  RH  083%=      5-min Rain = 0
KMCS 141340Z 30004KT 19/15 A3022 RMK A01 T01910154  RH  083%=      5-min Rain = 0
KMCS 141345Z 29003KT 19/16 A3021 RMK A01 T01930155  RH  082%=      5-min Rain = 0
KMCS 141350Z 29003KT 20/16 A3021 RMK A01 T01950156  RH  082%=      5-min Rain = 0
KMCS 141355Z 29002KT 20/16 A3022 RMK A01 T01980157  RH  081%=      5-min Rain = 0
KMCS 141400Z 29004KT 20/16 A3022 RMK A01 T02010159  RH  080%=      5-min Rain = 0
KMCS 141405Z 30002KT 20/16 A3022 RMK A01 T02040159  RH  079%=      5-min Rain = 0
KMCS 141410Z 30002KT 21/16 A3021 RMK A01 T02060158  RH  077%=      5-min Rain = 0
KMCS 141415Z 29002KT 21/16 A3021 RMK A01 T02100159  RH  076%=      5-min Rain = 0
KMCS 141420Z 28003KT 21/16 A3021 RMK A01 T02140157  RH  073%=      5-min Rain = 0
KMCS 141425Z 29003KT 22/16 A3021 RMK A01 T02160158  RH  073%=      5-min Rain = 0
KMCS 141430Z 29004KT 22/16 A3021 RMK A01 T02190157  RH  071%=      5-min Rain = 0
KMCS 141435Z 31003KT 22/16 A3021 RMK A01 T02220158  RH  070%=      5-min Rain = 0
KMCS 141440Z 31003KT 23/16 A3021 RMK A01 T02280159  RH  068%=      5-min Rain = 0
KMCS 141445Z 25002KT 23/16 A302 RMK A01 T02330157  RH  065%=      5-min Rain = 0
KMCS 141450Z 20002KT 24/16 A302 RMK A01 T02370156  RH  063%=      5-min Rain = 0
KMCS 141455Z 15003KT 24/16 A302 RMK A01 T02420157  RH  062%=      5-min Rain = 0
KMCS 141500Z 12004KT 24/15 A302 RMK A01 T02440154  RH  060%=      5-min Rain = 0
KMCS 141505Z 14002KT 25/16 A302 RMK A01 T02480157  RH  059%=      5-min Rain = 0
KMCS 141510Z 17002KT 25/16 A3021 RMK A01 T02510162  RH  061%=      5-min Rain = 0
KMCS 141515Z 19001KT 25/16 A3021 RMK A01 T02490158  RH  059%=      5-min Rain = 0
KMCS 141520Z 19001KT 25/16 A3021 RMK A01 T02480159  RH  060%=      5-min Rain = 0
KMCS 141525Z 03002KT 25/16 A3021 RMK A01 T02520161  RH  060%=      5-min Rain = 0
KMCS 141530Z 04002KT 25/16 A3021 RMK A01 T02490155  RH  058%=      5-min Rain = 0
KMCS 141535Z 34004KT 25/15 A3022 RMK A01 T02500153  RH  057%=      5-min Rain = 0
KMCS 141540Z 33006KT 25/15 A3022 RMK A01 T02520150  RH  056%=      5-min Rain = 0
KMCS 141545Z 34007KT 25/15 A3021 RMK A01 T02540150  RH  055%=      5-min Rain = 0
KMCS 141550Z 35009KT 26/15 A3022 RMK A01 T02560153  RH  055%=      5-min Rain = 0
KMCS 141555Z 34008KT 25/15 A3022 RMK A01 T02510146  RH  055%=      5-min Rain = 0
KMCS 141600Z 34009KT 25/14 A3023 RMK A01 T02490143  RH  054%=      5-min Rain = 0
KMCS 141605Z 36007KT 25/15 A3022 RMK A01 T02490147  RH  056%=      5-min Rain = 0
KMCS 141610Z 35009KT 25/15 A3022 RMK A01 T02530152  RH  056%=      5-min Rain = 0
KMCS 141615Z 34009KT 26/16 A3023 RMK A01 T02590157  RH  056%=      5-min Rain = 0
KMCS 141620Z 35009G17KT 26/16 A3023 RMK A01 T02620156  RH  054%=      5-min Rain = 0
KMCS 141625Z 02008G13KT 26/15 A3024 RMK A01 T02600151  RH  054%=      5-min Rain = 0
KMCS 141630Z 02011G18KT 26/15 A3023 RMK A01 T02640147  RH  051%=      5-min Rain = 0
KMCS 141635Z 02013G18KT 26/14 A3022 RMK A01 T02590137  RH  049%=      5-min Rain = 0
KMCS 141640Z 03010G17KT 26/14 A3022 RMK A01 T02610140  RH  049%=      5-min Rain = 0
KMCS 141645Z 01008G15KT 26/14 A3022 RMK A01 T02640141  RH  049%=      5-min Rain = 0
KMCS 141650Z 04009KT 27/14 A3021 RMK A01 T02650142  RH  049%=      5-min Rain = 0
KMCS 141655Z 03010G17KT 27/14 A3021 RMK A01 T02680140  RH  047%=      5-min Rain = 0
KMCS 141700Z 03010KT 27/14 A3021 RMK A01 T02730137  RH  045%=      5-min Rain = 0
KMCS 141705Z 03010G15KT 27/14 A3021 RMK A01 T02730138  RH  045%=      5-min Rain = 0
KMCS 141710Z 04012G17KT 28/14 A302 RMK A01 T02760139  RH  045%=      5-min Rain = 0
KMCS 141715Z 03009G17KT 27/14 A302 RMK A01 T02740139  RH  046%=      5-min Rain = 0
KMCS 141720Z 04011G18KT 28/14 A302 RMK A01 T02780136  RH  044%=      5-min Rain = 0
KMCS 141725Z 04011KT 28/14 A302 RMK A01 T02780137  RH  044%=      5-min Rain = 0
KMCS 141730Z 04010G17KT 28/14 A3019 RMK A01 T02780136  RH  043%=      5-min Rain = 0
KMCS 141735Z 05010KT 28/14 A3018 RMK A01 T02800139  RH  044%=      5-min Rain = 0
KMCS 141740Z 04010KT 28/14 A3017 RMK A01 T02800136  RH  043%=      5-min Rain = 0
KMCS 141745Z 04008G14KT 28/14 A3017 RMK A01 T02820139  RH  043%=      5-min Rain = 0
KMCS 141750Z 05011KT 28/14 A3017 RMK A01 T02820141  RH  044%=      5-min Rain = 0
KMCS 141755Z 04007G12KT 28/14 A3017 RMK A01 T02820140  RH  043%=      5-min Rain = 0
KMCS 141800Z 06009KT 28/14 A3017 RMK A01 T02830141  RH  043%=      5-min Rain = 0
KMCS 141805Z 06008KT 28/14 A3017 RMK A01 T02810138  RH  043%=      5-min Rain = 0
KMCS 141810Z 05007KT 28/13 A3017 RMK A01 T02820134  RH  042%=      5-min Rain = 0
KMCS 141815Z 06008G13KT 28/14 A3016 RMK A01 T02840138  RH  043%=      5-min Rain = 0
KMCS 141820Z 05008G13KT 29/14 A3016 RMK A01 T02870139  RH  042%=      5-min Rain = 0
KMCS 141825Z 06006KT 29/14 A3016 RMK A01 T02900140  RH  042%=      5-min Rain = 0
KMCS 141830Z 07008KT 29/14 A3016 RMK A01 T02870138  RH  042%=      5-min Rain = 0
KMCS 141835Z 06006G11KT 29/14 A3016 RMK A01 T02880140  RH  042%=      5-min Rain = 0
KMCS 141840Z 07008KT 29/14 A3016 RMK A01 T02880138  RH  041%=      5-min Rain = 0
KMCS 141845Z 05004KT 29/13 A3016 RMK A01 T02870134  RH  040%=      5-min Rain = 0
KMCS 141850Z 07004KT 29/14 A3015 RMK A01 T02930140  RH  041%=      5-min Rain = 0
KMCS 141855Z 07007KT 29/14 A3015 RMK A01 T02930142  RH  041%=      5-min Rain = 0
KMCS 141900Z 06007KT 29/14 A3015 RMK A01 T02920138  RH  041%=      5-min Rain = 0
KMCS 141905Z 06004G9KT 29/14 A3015 RMK A01 T02930140  RH  041%=      5-min Rain = 0
KMCS 141910Z 09005KT 29/14 A3015 RMK A01 T02930138  RH  040%=      5-min Rain = 0
KMCS 141915Z 12007KT 29/14 A3015 RMK A01 T02920137  RH  040%=      5-min Rain = 0
KMCS 141920Z 09007KT 30/14 A3015 RMK A01 T02950142  RH  041%=      5-min Rain = 0
KMCS 141925Z 12008KT 30/14 A3015 RMK A01 T02950137  RH  040%=      5-min Rain = 0
KMCS 141930Z 11007KT 29/14 A3015 RMK A01 T02940138  RH  040%=      5-min Rain = 0
KMCS 141935Z 12007KT 30/14 A3014 RMK A01 T02960135  RH  039%=      5-min Rain = 0
KMCS 141940Z 09005KT 29/14 A3014 RMK A01 T02940137  RH  040%=      5-min Rain = 0
KMCS 141945Z 13005KT 30/14 A3014 RMK A01 T02970142  RH  040%=      5-min Rain = 0
KMCS 141950Z 14006KT 30/14 A3014 RMK A01 T03000142  RH  040%=      5-min Rain = 0
KMCS 141955Z 12005KT 31/15 A3014 RMK A01 T03050147  RH  040%=      5-min Rain = 0
KMCS 142000Z 12006G11KT 30/14 A3014 RMK A01 T03010136  RH  038%=      5-min Rain = 0
KMCS 142005Z 12005G11KT 30/15 A3014 RMK A01 T03030145  RH  040%=      5-min Rain = 0
KMCS 142010Z 09005G11KT 30/14 A3014 RMK A01 T03010142  RH  040%=      5-min Rain = 0
KMCS 142015Z 12006G11KT 30/14 A3013 RMK A01 T03000139  RH  039%=      5-min Rain = 0
KMCS 142020Z 13003G11KT 30/14 A3013 RMK A01 T03020140  RH  039%=      5-min Rain = 0
KMCS 142025Z 13008KT 30/14 A3013 RMK A01 T03040137  RH  038%=      5-min Rain = 0
KMCS 142030Z 10005KT 30/14 A3013 RMK A01 T03030135  RH  037%=      5-min Rain = 0
KMCS 142035Z 07003KT 30/14 A3013 RMK A01 T03030135  RH  037%=      5-min Rain = 0
KMCS 142040Z 12003KT 31/14 A3012 RMK A01 T03070135  RH  037%=      5-min Rain = 0
KMCS 142045Z 12004KT 31/13 A3012 RMK A01 T03090134  RH  036%=      5-min Rain = 0
KMCS 142050Z 11003KT 31/13 A3012 RMK A01 T03090134  RH  036%=      5-min Rain = 0
KMCS 142055Z 10002KT 31/14 A3012 RMK A01 T03100138  RH  037%=      5-min Rain = 0
KMCS 142100Z 08003KT 31/14 A3012 RMK A01 T03120139  RH  036%=      5-min Rain = 0
KMCS 142105Z 10004G9KT 31/14 A3011 RMK A01 T03100137  RH  036%=      5-min Rain = 0
KMCS 142110Z 05004KT 31/14 A3011 RMK A01 T03130135  RH  035%=      5-min Rain = 0
KMCS 142115Z 07004KT 31/14 A3011 RMK A01 T03130137  RH  036%=      5-min Rain = 0
KMCS 142120Z 07004KT 31/13 A3011 RMK A01 T03110128  RH  034%=      5-min Rain = 0
KMCS 142125Z 07004KT 31/12 A3011 RMK A01 T03110124  RH  033%=      5-min Rain = 0
KMCS 142130Z 07004KT 31/13 A3011 RMK A01 T03130127  RH  033%=      5-min Rain = 0
KMCS 142135Z 09004KT 31/13 A3011 RMK A01 T03130126  RH  033%=      5-min Rain = 0
KMCS 142140Z 09005KT 31/13 A301 RMK A01 T03120129  RH  034%=      5-min Rain = 0
KMCS 142145Z 07003KT 31/13 A301 RMK A01 T03130126  RH  033%=      5-min Rain = 0
KMCS 142150Z 14001KT 31/12 A301 RMK A01 T03130118  RH  031%=      5-min Rain = 0
KMCS 142155Z 18002KT 31/13 A301 RMK A01 T03130130  RH  034%=      5-min Rain = 0
KMCS 142200Z 06001KT 32/14 A3009 RMK A01 T03170138  RH  035%=      5-min Rain = 0
KMCS 142205Z 10005KT 32/13 A3009 RMK A01 T03150133  RH  034%=      5-min Rain = 0
KMCS 142210Z 11005KT 31/13 A3009 RMK A01 T03130128  RH  034%=      5-min Rain = 0
KMCS 142215Z 08004KT 32/13 A3009 RMK A01 T03160131  RH  034%=      5-min Rain = 0
KMCS 142220Z 05005KT 32/14 A3009 RMK A01 T03160135  RH  035%=      5-min Rain = 0
KMCS 142225Z 04003KT 32/13 A3009 RMK A01 T03160131  RH  034%=      5-min Rain = 0
KMCS 142230Z 05003KT 32/13 A3009 RMK A01 T03160128  RH  033%=      5-min Rain = 0
KMCS 142235Z 10002KT 32/13 A3009 RMK A01 T03160125  RH  032%=      5-min Rain = 0
KMCS 142240Z 08003KT 32/13 A3008 RMK A01 T03170130  RH  033%=      5-min Rain = 0
KMCS 142245Z 07006KT 32/13 A3008 RMK A01 T03150127  RH  033%=      5-min Rain = 0
KMCS 142250Z 10005KT 31/13 A3008 RMK A01 T03130126  RH  033%=      5-min Rain = 0
KMCS 142255Z 12004KT 31/13 A3008 RMK A01 T03140126  RH  033%=      5-min Rain = 0
KMCS 142300Z 13002KT 32/13 A3008 RMK A01 T03170129  RH  033%=      5-min Rain = 0
KMCS 142305Z 09003KT 32/13 A3008 RMK A01 T03170128  RH  033%=      5-min Rain = 0
KMCS 142310Z 11003KT 32/13 A3008 RMK A01 T03170132  RH  034%=      5-min Rain = 0
KMCS 142315Z 10003KT 32/13 A3008 RMK A01 T03150129  RH  034%=      5-min Rain = 0
KMCS 142320Z 11004KT 31/13 A3008 RMK A01 T03130127  RH  033%=      5-min Rain = 0
KMCS 142325Z 14003KT 31/12 A3008 RMK A01 T03140124  RH  033%=      5-min Rain = 0
KMCS 142330Z 13003KT 32/13 A3008 RMK A01 T03160125  RH  032%=      5-min Rain = 0
KMCS 142335Z 08004KT 31/13 A3008 RMK A01 T03140127  RH  033%=      5-min Rain = 0
KMCS 142340Z 08001KT 32/13 A3008 RMK A01 T03150125  RH  033%=      5-min Rain = 0
KMCS 142345Z 10002KT 32/13 A3008 RMK A01 T03150127  RH  033%=      5-min Rain = 0
KMCS 142350Z 10004KT 31/13 A3008 RMK A01 T03130134  RH  035%=      5-min Rain = 0
KMCS 142355Z 10005KT 31/13 A3008 RMK A01 T03110131  RH  035%=      5-min Rain = 0
KMCS 150000Z 10004KT 31/13 A3008 RMK A01 T03100130  RH  035%=      5-min Rain = 0
KMCS 150005Z 10004KT 31/13 A3008 RMK A01 T03100130  RH  035%=      5-min Rain = 0
KMCS 150010Z 10004KT 31/13 A3008 RMK A01 T03100127  RH  034%=      5-min Rain = 0
KMCS 150015Z 11003KT 31/13 A3008 RMK A01 T03090131  RH  035%=      5-min Rain = 0
KMCS 150020Z 12004KT 31/13 A3008 RMK A01 T03100133  RH  035%=      5-min Rain = 0
KMCS 150025Z 11004KT 31/14 A3008 RMK A01 T03070137  RH  037%=      5-min Rain = 0
KMCS 150030Z 11004KT 31/14 A3008 RMK A01 T03050137  RH  037%=      5-min Rain = 0
KMCS 150035Z 12004KT 31/13 A3008 RMK A01 T03050134  RH  037%=      5-min Rain = 0
KMCS 150040Z 13004KT 31/13 A3008 RMK A01 T03050132  RH  036%=      5-min Rain = 0
KMCS 150045Z 13004KT 30/13 A3008 RMK A01 T03040133  RH  037%=      5-min Rain = 0
KMCS 150050Z 13004KT 30/14 A3008 RMK A01 T03020139  RH  039%=      5-min Rain = 0
KMCS 150055Z 12003KT 30/14 A3008 RMK A01 T02990142  RH  040%=      5-min Rain = 0
KMCS 150100Z 12004KT 30/15 A3008 RMK A01 T02960145  RH  041%=      5-min Rain = 0
KMCS 150105Z 12004KT 29/15 A3008 RMK A01 T02940148  RH  043%=      5-min Rain = 0
KMCS 150110Z 12004KT 29/15 A3008 RMK A01 T02920150  RH  044%=      5-min Rain = 0
KMCS 150115Z 11003KT 29/15 A3009 RMK A01 T02870147  RH  044%=      5-min Rain = 0
KMCS 150120Z 10004KT 28/15 A3009 RMK A01 T02830145  RH  045%=      5-min Rain = 0
KMCS 150125Z 10003KT 28/14 A3009 RMK A01 T02800142  RH  045%=      5-min Rain = 0
KMCS 150130Z 11003KT 28/14 A3009 RMK A01 T02790143  RH  045%=      5-min Rain = 0
KMCS 150135Z 12004KT 28/15 A3009 RMK A01 T02790147  RH  046%=      5-min Rain = 0
KMCS 150140Z 13004KT 28/14 A3009 RMK A01 T02800141  RH  045%=      5-min Rain = 0
KMCS 150145Z 14004KT 28/14 A3009 RMK A01 T02770143  RH  046%=      5-min Rain = 0
KMCS 150150Z 15005KT 27/15 A3009 RMK A01 T02740148  RH  048%=      5-min Rain = 0
KMCS 150155Z 15004KT 27/15 A301 RMK A01 T02710148  RH  049%=      5-min Rain = 0
KMCS 150200Z 16004KT 27/15 A301 RMK A01 T02680152  RH  051%=      5-min Rain = 0
KMCS 150205Z 14004KT 27/15 A301 RMK A01 T02660153  RH  052%=      5-min Rain = 0
KMCS 150210Z 13004KT 26/15 A301 RMK A01 T02620152  RH  053%=      5-min Rain = 0
KMCS 150215Z 12004KT 26/15 A3011 RMK A01 T02620147  RH  051%=      5-min Rain = 0
KMCS 150220Z 12005KT 26/15 A3011 RMK A01 T02610146  RH  051%=      5-min Rain = 0
KMCS 150225Z 11005KT 26/15 A3011 RMK A01 T02600146  RH  052%=      5-min Rain = 0
KMCS 150230Z 11006KT 26/15 A3011 RMK A01 T02600146  RH  051%=      5-min Rain = 0
KMCS 150235Z 12005KT 26/14 A3011 RMK A01 T02620144  RH  050%=      5-min Rain = 0
KMCS 150240Z 12005KT 26/14 A3011 RMK A01 T02630142  RH  049%=      5-min Rain = 0
KMCS 150245Z 12005KT 26/14 A3012 RMK A01 T02640142  RH  049%=      5-min Rain = 0
KMCS 150250Z 12006KT 26/14 A3012 RMK A01 T02630144  RH  050%=      5-min Rain = 0
KMCS 150255Z 12006KT 26/15 A3012 RMK A01 T02610146  RH  051%=      5-min Rain = 0
KMCS 150300Z 12007KT 26/15 A3013 RMK A01 T02590146  RH  052%=      5-min Rain = 0
KMCS 150305Z 12007KT 26/15 A3013 RMK A01 T02590147  RH  052%=      5-min Rain = 0
KMCS 150310Z 12006KT 26/15 A3013 RMK A01 T02580148  RH  053%=      5-min Rain = 0
KMCS 150315Z 12007KT 26/15 A3013 RMK A01 T02560150  RH  054%=      5-min Rain = 0
KMCS 150320Z 12007KT 25/15 A3013 RMK A01 T02540152  RH  056%=      5-min Rain = 0
KMCS 150325Z 12007KT 25/15 A3013 RMK A01 T02540154  RH  057%=      5-min Rain = 0
KMCS 150330Z 12007KT 25/16 A3013 RMK A01 T02540157  RH  058%=      5-min Rain = 0
KMCS 150335Z 12006KT 25/16 A3013 RMK A01 T02530159  RH  059%=      5-min Rain = 0
KMCS 150340Z 12007KT 25/16 A3013 RMK A01 T02520160  RH  059%=      5-min Rain = 0
KMCS 150345Z 13007KT 25/16 A3014 RMK A01 T02510161  RH  060%=      5-min Rain = 0
KMCS 150350Z 13006KT 25/16 A3014 RMK A01 T02480162  RH  062%=      5-min Rain = 0
KMCS 150355Z 13006KT 25/16 A3014 RMK A01 T02470164  RH  063%=      5-min Rain = 0
KMCS 150400Z 14005KT 25/17 A3014 RMK A01 T02460165  RH  064%=      5-min Rain = 0
KMCS 150405Z 15005KT 25/17 A3015 RMK A01 T02450166  RH  065%=      5-min Rain = 0
KMCS 150410Z 16005KT 24/17 A3015 RMK A01 T02430168  RH  066%=      5-min Rain = 0
KMCS 150415Z 15005KT 24/17 A3015 RMK A01 T02420167  RH  066%=      5-min Rain = 0
KMCS 150420Z 16005KT 24/17 A3015 RMK A01 T02420168  RH  067%=      5-min Rain = 0
KMCS 150425Z 14005KT 24/17 A3015 RMK A01 T02410168  RH  067%=      5-min Rain = 0
KMCS 150430Z 15005KT 24/17 A3015 RMK A01 T02390169  RH  068%=      5-min Rain = 0
KMCS 150435Z 15004KT 24/17 A3016 RMK A01 T02390169  RH  068%=      5-min Rain = 0
KMCS 150440Z 15005KT 24/17 A3016 RMK A01 T02400169  RH  068%=      5-min Rain = 0
KMCS 150445Z 16005KT 24/17 A3016 RMK A01 T02390169  RH  068%=      5-min Rain = 0
KMCS 150450Z 15004KT 24/17 A3016 RMK A01 T02390169  RH  068%=      5-min Rain = 0
KMCS 150455Z 14004KT 24/17 A3016 RMK A01 T02390168  RH  068%=      5-min Rain = 0

Page generated in 0.009 seconds.